createdAt,value
2019-03-08T00:02:13.994Z,3.95
2019-03-08T00:04:43.204Z,10.38
2019-03-08T00:07:11.479Z,7.50
2019-03-08T00:09:39.794Z,9.53
2019-03-08T00:12:08.078Z,10.10
2019-03-08T00:14:36.388Z,6.40
2019-03-08T00:17:04.978Z,5.43
2019-03-08T00:19:33.328Z,5.58
2019-03-08T00:22:01.620Z,5.10
2019-03-08T00:24:29.928Z,7.72
2019-03-08T00:26:58.235Z,7.55
2019-03-08T00:29:26.514Z,5.40
2019-03-08T00:31:54.827Z,5.25
2019-03-08T00:34:23.410Z,7.00
2019-03-08T00:36:51.754Z,7.72
2019-03-08T00:39:20.048Z,11.08
2019-03-08T00:41:48.359Z,6.30
2019-03-08T00:44:16.640Z,10.20
2019-03-08T00:46:44.937Z,9.15
2019-03-08T00:49:13.230Z,9.58
2019-03-08T00:51:41.776Z,8.00
2019-03-08T00:54:10.089Z,6.50
2019-03-08T00:56:39.730Z,4.95
2019-03-08T00:59:08.456Z,10.98
2019-03-08T01:01:36.731Z,8.03
2019-03-08T01:04:05.039Z,7.35
2019-03-08T01:06:33.327Z,7.67
2019-03-08T01:09:01.947Z,9.43
2019-03-08T01:11:30.235Z,10.27
2019-03-08T01:13:58.569Z,6.28
2019-03-08T01:16:26.863Z,6.03
2019-03-08T01:18:55.170Z,8.95
2019-03-08T01:21:23.450Z,9.33
2019-03-08T01:23:51.777Z,5.62
2019-03-08T01:26:20.046Z,8.33
2019-03-08T01:28:48.651Z,12.90
2019-03-08T01:31:16.960Z,9.33
2019-03-08T01:33:45.234Z,9.60
2019-03-08T01:36:13.537Z,8.75
2019-03-08T01:38:42.086Z,8.10
2019-03-08T01:41:10.399Z,10.53
2019-03-08T01:43:38.696Z,10.30
2019-03-08T01:46:07.003Z,12.20
2019-03-08T01:48:35.335Z,7.33
2019-03-08T01:51:03.635Z,7.08
2019-03-08T01:53:31.938Z,10.00
2019-03-08T01:56:00.245Z,8.30
2019-03-08T01:58:28.599Z,11.50
2019-03-08T02:00:56.911Z,12.65
2019-03-08T02:03:25.451Z,7.70
2019-03-08T02:05:53.755Z,9.20
2019-03-08T02:08:22.063Z,10.50
2019-03-08T02:10:50.426Z,12.37
2019-03-08T02:13:18.932Z,10.48
2019-03-08T02:15:47.230Z,8.45
2019-03-08T02:18:15.531Z,11.33
2019-03-08T02:20:43.826Z,9.20
2019-03-08T02:23:12.508Z,9.23
2019-03-08T02:25:40.807Z,6.72
2019-03-08T02:28:09.270Z,6.78
2019-03-08T02:30:37.681Z,5.00
2019-03-08T02:33:06.206Z,2.37
2019-03-08T02:35:34.511Z,3.30
2019-03-08T02:38:03.174Z,3.67
2019-03-08T02:40:33.860Z,3.52
2019-03-08T02:43:04.080Z,2.80
2019-03-08T02:45:32.448Z,6.00
2019-03-08T02:48:00.817Z,4.93
2019-03-08T02:50:29.114Z,4.92
2019-03-08T02:52:57.408Z,3.65
2019-03-08T02:55:25.803Z,4.60
2019-03-08T02:57:54.097Z,5.50
2019-03-08T03:00:22.461Z,3.27
2019-03-08T03:02:51.071Z,5.42
2019-03-08T03:05:19.362Z,7.87
2019-03-08T03:07:47.651Z,6.72
2019-03-08T03:10:16.123Z,10.70
2019-03-08T03:12:44.490Z,6.10
2019-03-08T03:15:14.539Z,6.55
2019-03-08T03:17:42.925Z,6.60
2019-03-08T03:20:12.957Z,8.18
2019-03-08T03:22:41.236Z,7.55
2019-03-08T03:25:12.218Z,7.60
2019-03-08T03:27:40.774Z,4.70
2019-03-08T03:30:16.995Z,6.80
2019-03-08T03:32:45.310Z,12.03
2019-03-08T03:35:13.599Z,6.40
2019-03-08T03:37:41.859Z,6.05
2019-03-08T03:40:18.150Z,6.97
2019-03-08T03:42:46.597Z,6.47
2019-03-08T03:45:21.282Z,7.30
2019-03-08T03:47:49.582Z,8.18
2019-03-08T03:50:18.719Z,11.60
2019-03-08T03:52:47.215Z,6.67
2019-03-08T03:55:18.077Z,8.60
2019-03-08T03:57:46.474Z,8.55
2019-03-08T04:00:22.299Z,6.85
2019-03-08T04:02:50.594Z,8.65
2019-03-08T04:05:18.878Z,9.18
2019-03-08T04:07:47.186Z,7.10
2019-03-08T04:10:16.526Z,8.25
2019-03-08T04:12:44.822Z,9.90
2019-03-08T04:15:20.126Z,11.73
2019-03-08T04:17:48.741Z,9.43
2019-03-08T04:20:18.174Z,11.88
2019-03-08T04:22:46.782Z,9.77
2019-03-08T04:25:15.466Z,8.53
2019-03-08T04:27:43.775Z,10.88
2019-03-08T04:30:14.402Z,10.40
2019-03-08T04:32:43.067Z,8.95
2019-03-08T04:35:11.360Z,9.87
2019-03-08T04:37:40.029Z,7.78
2019-03-08T04:40:10.379Z,9.58
2019-03-08T04:42:38.749Z,12.90
2019-03-08T04:45:09.968Z,9.40
2019-03-08T04:47:38.263Z,10.82
2019-03-08T04:50:08.994Z,12.82
2019-03-08T04:52:37.282Z,14.18
2019-03-08T04:55:08.772Z,11.20
2019-03-08T04:57:37.076Z,12.45
2019-03-08T05:00:08.986Z,14.05
2019-03-08T05:02:37.279Z,17.25
2019-03-08T05:05:05.942Z,14.87
2019-03-08T05:07:34.241Z,12.20
2019-03-08T05:10:02.605Z,8.70
2019-03-08T05:12:31.174Z,14.35
2019-03-08T05:15:00.058Z,9.63
2019-03-08T05:17:28.632Z,13.22
2019-03-08T05:19:56.989Z,14.38
2019-03-08T05:22:25.261Z,17.65
2019-03-08T05:24:53.540Z,15.17
2019-03-08T05:27:21.852Z,12.73
2019-03-08T05:29:50.374Z,16.32
2019-03-08T05:32:18.674Z,18.25
2019-03-08T05:34:46.969Z,14.83
2019-03-08T05:37:15.266Z,15.80
2019-03-08T05:39:43.572Z,16.57
2019-03-08T05:42:11.865Z,17.60
2019-03-08T05:44:40.696Z,10.78
2019-03-08T05:47:08.980Z,13.95
2019-03-08T05:49:37.288Z,14.93
2019-03-08T05:52:05.935Z,15.88
2019-03-08T05:54:34.272Z,20.07
2019-03-08T05:57:02.541Z,18.02
2019-03-08T05:59:30.931Z,16.57
2019-03-08T06:01:59.219Z,20.45
2019-03-08T06:04:27.535Z,14.50
2019-03-08T06:06:56.096Z,16.77
2019-03-08T06:09:24.761Z,21.73
2019-03-08T06:11:53.060Z,16.75
2019-03-08T06:14:21.388Z,14.93
2019-03-08T06:16:49.740Z,16.33
2019-03-08T06:19:18.134Z,16.65
2019-03-08T06:21:46.415Z,19.15
2019-03-08T06:24:14.758Z,19.40
2019-03-08T06:26:43.067Z,18.90
2019-03-08T06:29:11.371Z,21.67
2019-03-08T06:31:39.702Z,19.50
2019-03-08T06:34:08.015Z,19.50
2019-03-08T06:36:36.316Z,17.67
2019-03-08T06:39:06.651Z,20.95
2019-03-08T06:41:35.249Z,17.40
2019-03-08T06:44:03.554Z,18.07
2019-03-08T06:46:31.859Z,19.12
2019-03-08T06:49:00.207Z,21.65
2019-03-08T06:51:28.534Z,27.45
2019-03-08T06:53:57.140Z,22.73
2019-03-08T06:56:25.455Z,25.50
2019-03-08T06:58:58.396Z,24.75
2019-03-08T07:01:26.694Z,26.02
2019-03-08T07:03:55.101Z,24.85
2019-03-08T07:06:23.734Z,24.55
2019-03-08T07:08:52.342Z,30.02
2019-03-08T07:11:20.663Z,20.48
2019-03-08T07:13:48.957Z,20.30
2019-03-08T07:16:17.564Z,25.23
2019-03-08T07:18:46.061Z,29.27
2019-03-08T07:21:15.986Z,20.27
2019-03-08T07:23:54.633Z,25.00
2019-03-08T07:26:39.602Z,22.57
2019-03-08T07:29:09.873Z,24.10
2019-03-08T07:31:52.162Z,25.70
2019-03-08T07:34:24.820Z,23.50
2019-03-08T07:37:11.338Z,23.40
2019-03-08T07:39:41.279Z,22.13
2019-03-08T07:42:11.506Z,22.00
2019-03-08T07:44:57.483Z,27.00
2019-03-08T07:47:27.723Z,27.90
2019-03-08T07:50:00.699Z,23.55
2019-03-08T07:52:33.559Z,21.33
2019-03-08T07:55:18.220Z,27.25
2019-03-08T07:58:04.493Z,37.75
2019-03-08T08:00:34.462Z,23.50
2019-03-08T08:03:20.604Z,35.38
2019-03-08T08:06:06.944Z,25.65
2019-03-08T08:08:51.332Z,31.23
2019-03-08T08:11:17.428Z,20.12
2019-03-08T08:13:56.309Z,35.85
2019-03-08T08:16:29.049Z,28.40
2019-03-08T08:19:11.267Z,31.20
2019-03-08T08:21:57.297Z,34.15
2019-03-08T08:24:27.248Z,26.57
2019-03-08T08:26:57.215Z,27.27
2019-03-08T08:29:34.641Z,31.37
2019-03-08T08:32:08.122Z,29.32
2019-03-08T08:34:44.316Z,33.55
2019-03-08T08:37:20.184Z,32.93
2019-03-08T08:40:08.708Z,26.30
2019-03-08T08:42:38.655Z,29.82
2019-03-08T08:45:26.233Z,24.80
2019-03-08T08:48:02.051Z,25.45
2019-03-08T08:50:38.251Z,30.43
2019-03-08T08:53:26.130Z,30.20
2019-03-08T08:55:59.081Z,19.15
2019-03-08T08:58:47.055Z,27.15
2019-03-08T09:01:19.984Z,32.57
2019-03-08T09:03:58.844Z,30.10
2019-03-08T09:06:31.596Z,30.23
2019-03-08T09:09:16.570Z,24.10
2019-03-08T09:11:52.636Z,22.42
2019-03-08T09:14:36.255Z,22.02
2019-03-08T09:17:08.842Z,23.70
2019-03-08T09:19:55.300Z,21.20
2019-03-08T09:22:25.241Z,19.65
2019-03-08T09:24:55.435Z,26.15
2019-03-08T09:27:25.387Z,28.52
2019-03-08T09:29:58.392Z,28.17
2019-03-08T09:32:31.501Z,29.30
2019-03-08T09:35:07.874Z,26.45
2019-03-08T09:37:38.089Z,30.00
2019-03-08T09:40:28.712Z,24.52
2019-03-08T09:43:13.541Z,27.22
2019-03-08T09:45:43.482Z,20.27
2019-03-08T09:48:13.445Z,21.95
2019-03-08T09:50:49.944Z,22.62
2019-03-08T09:53:36.291Z,22.27
2019-03-08T09:56:06.882Z,23.77
2019-03-08T09:58:36.846Z,24.00
2019-03-08T10:01:16.203Z,20.43
2019-03-08T10:03:41.325Z,15.18
2019-03-08T10:06:11.558Z,15.70
2019-03-08T10:08:50.520Z,16.23
2019-03-08T10:11:29.027Z,15.10
2019-03-08T10:14:07.904Z,16.90
2019-03-08T10:16:38.141Z,15.93
2019-03-08T10:19:26.370Z,20.88
2019-03-08T10:21:59.070Z,17.27
2019-03-08T10:24:29.288Z,19.62
2019-03-08T10:26:59.508Z,15.75
2019-03-08T10:29:35.420Z,12.05
2019-03-08T10:32:21.771Z,16.90
2019-03-08T10:34:57.658Z,14.98
2019-03-08T10:37:43.204Z,13.00
2019-03-08T10:40:26.953Z,11.18
2019-03-08T10:43:00.141Z,10.48
2019-03-08T10:45:36.080Z,6.55
2019-03-08T10:48:06.307Z,7.47
2019-03-08T10:50:39.410Z,8.17
2019-03-08T10:53:12.043Z,8.87
2019-03-08T10:55:41.974Z,8.43
2019-03-08T10:58:14.666Z,8.73
2019-03-08T11:00:44.618Z,8.98
2019-03-08T11:03:14.566Z,6.70
2019-03-08T11:05:50.394Z,13.68
2019-03-08T11:08:29.382Z,9.97
2019-03-08T11:11:06.148Z,11.08
2019-03-08T11:13:45.404Z,12.67
2019-03-08T11:16:25.043Z,13.18
2019-03-08T11:19:11.203Z,16.90
2019-03-08T11:21:57.314Z,15.53
2019-03-08T11:24:30.226Z,16.27
2019-03-08T11:27:16.356Z,20.05
2019-03-08T11:29:58.459Z,17.62
2019-03-08T11:32:28.397Z,21.17
2019-03-08T11:34:58.352Z,19.70
2019-03-08T11:37:28.569Z,17.60
2019-03-08T11:40:14.625Z,19.90
2019-03-08T11:42:44.683Z,13.95
2019-03-08T11:45:23.983Z,15.90
2019-03-08T11:47:56.904Z,18.02
2019-03-08T11:50:38.711Z,18.30
2019-03-08T11:53:08.685Z,16.65
2019-03-08T11:55:44.683Z,15.75
2019-03-08T11:58:26.765Z,17.73
2019-03-08T12:00:59.509Z,17.32
2019-03-08T12:03:31.897Z,16.77
2019-03-08T12:06:01.793Z,16.05
2019-03-08T12:08:31.745Z,15.85
2019-03-08T12:11:28.581Z,15.43
2019-03-08T12:14:13.252Z,20.20
2019-03-08T12:16:59.757Z,16.00
2019-03-08T12:19:45.690Z,13.93
2019-03-08T12:22:21.535Z,8.68
2019-03-08T12:24:57.899Z,10.58
2019-03-08T12:27:33.549Z,13.35
2019-03-08T12:30:09.656Z,7.08
2019-03-08T12:32:42.297Z,10.50
2019-03-08T12:35:12.692Z,9.77
2019-03-08T12:37:42.633Z,8.30
2019-03-08T12:40:12.940Z,6.08
2019-03-08T12:42:45.318Z,9.00
2019-03-08T12:45:31.496Z,12.53
2019-03-08T12:48:01.458Z,9.53
2019-03-08T12:50:31.418Z,13.15
2019-03-08T12:53:10.298Z,13.08
2019-03-08T12:55:56.734Z,13.20
2019-03-08T12:58:30.066Z,10.75
2019-03-08T13:01:00.254Z,13.03
2019-03-08T13:03:46.366Z,14.80
2019-03-08T13:06:32.716Z,13.28
2019-03-08T13:09:08.346Z,11.97
2019-03-08T13:11:36.938Z,14.80
2019-03-08T13:14:05.237Z,13.98
2019-03-08T13:16:33.528Z,12.45
2019-03-08T13:19:01.915Z,10.20
2019-03-08T13:21:30.248Z,13.35
2019-03-08T13:23:58.599Z,12.47
2019-03-08T13:26:27.186Z,7.97
2019-03-08T13:28:55.519Z,11.05
2019-03-08T13:31:23.810Z,12.47
2019-03-08T13:33:52.125Z,11.85
2019-03-08T13:36:20.485Z,12.78
2019-03-08T13:38:48.802Z,14.03
2019-03-08T13:41:17.429Z,12.90
2019-03-08T13:43:45.816Z,12.28
2019-03-08T13:46:14.174Z,14.33
2019-03-08T13:48:42.451Z,13.83
2019-03-08T13:51:11.041Z,12.60
2019-03-08T13:53:39.345Z,20.85
2019-03-08T13:56:08.023Z,17.40
2019-03-08T13:58:36.345Z,15.90
2019-03-08T14:01:04.666Z,15.00
2019-03-08T14:03:32.952Z,17.07
2019-03-08T14:06:01.288Z,19.37
2019-03-08T14:08:29.577Z,15.15
2019-03-08T14:10:58.167Z,13.32
2019-03-08T14:13:26.477Z,14.75
2019-03-08T14:15:55.292Z,11.15
2019-03-08T14:18:23.595Z,11.38
2019-03-08T14:20:51.898Z,15.95
2019-03-08T14:23:20.206Z,16.10
2019-03-08T14:25:48.521Z,18.23
2019-03-08T14:28:16.846Z,14.55
2019-03-08T14:30:57.892Z,11.83
2019-03-08T14:33:22.876Z,13.72
2019-03-08T14:35:51.183Z,10.10
2019-03-08T14:38:19.520Z,12.80
2019-03-08T14:40:53.273Z,13.90
2019-03-08T14:43:21.232Z,8.20
2019-03-08T14:45:51.168Z,11.27
2019-03-08T14:48:19.472Z,10.80
2019-03-08T14:50:47.775Z,15.03
2019-03-08T14:53:16.580Z,8.73
2019-03-08T14:55:44.881Z,15.78
2019-03-08T14:58:13.292Z,11.90
2019-03-08T15:00:41.657Z,12.28
2019-03-08T15:03:09.965Z,13.80
2019-03-08T15:05:38.269Z,10.45
2019-03-08T15:08:06.571Z,8.75
2019-03-08T15:10:39.374Z,8.90
2019-03-08T15:13:04.888Z,7.85
2019-03-08T15:15:33.177Z,10.68
2019-03-08T15:18:01.494Z,12.18
2019-03-08T15:20:30.084Z,9.23
2019-03-08T15:22:58.410Z,11.45
2019-03-08T15:25:26.717Z,11.93
2019-03-08T15:27:55.001Z,11.37
2019-03-08T15:30:23.322Z,10.55
2019-03-08T15:32:51.621Z,10.98
2019-03-08T15:35:20.274Z,8.43
2019-03-08T15:37:48.558Z,8.43
2019-03-08T15:40:23.871Z,7.80
2019-03-08T15:42:52.251Z,10.37
2019-03-08T15:45:20.634Z,10.40
2019-03-08T15:47:49.416Z,9.15
2019-03-08T15:50:21.508Z,8.70
2019-03-08T15:52:51.444Z,7.78
2019-03-08T15:55:19.845Z,9.33
2019-03-08T15:57:48.148Z,9.05
2019-03-08T16:00:19.278Z,8.28
2019-03-08T16:02:47.647Z,7.15
2019-03-08T16:05:17.807Z,13.30
2019-03-08T16:07:46.487Z,14.15
2019-03-08T16:10:20.661Z,10.53
2019-03-08T16:12:49.009Z,9.83
2019-03-08T16:15:17.583Z,8.00
2019-03-08T16:17:45.953Z,6.65
2019-03-08T16:20:21.240Z,7.20
2019-03-08T16:22:49.614Z,9.33
2019-03-08T16:25:18.175Z,7.37
2019-03-08T16:27:46.819Z,9.98
2019-03-08T16:30:31.801Z,8.13
2019-03-08T16:33:05.136Z,11.15
2019-03-08T16:35:37.445Z,15.90
2019-03-08T16:38:25.428Z,12.47
2019-03-08T16:41:01.209Z,12.60
2019-03-08T16:43:31.016Z,10.18
2019-03-08T16:46:10.309Z,13.18
2019-03-08T16:48:44.201Z,9.90
2019-03-08T16:51:21.180Z,9.93
2019-03-08T16:54:07.820Z,12.65
2019-03-08T16:56:37.777Z,9.33
2019-03-08T16:59:07.705Z,9.10
2019-03-08T17:01:40.944Z,12.37
2019-03-08T17:04:25.620Z,9.15
2019-03-08T17:07:01.874Z,9.65
2019-03-08T17:09:31.826Z,10.90
2019-03-08T17:12:07.628Z,11.35
2019-03-08T17:14:37.575Z,11.00
2019-03-08T17:17:10.506Z,11.50
2019-03-08T17:19:43.294Z,9.20
2019-03-08T17:22:15.899Z,10.15
2019-03-08T17:24:45.856Z,10.05
2019-03-08T17:27:18.775Z,14.60
2019-03-08T17:30:03.996Z,8.47
2019-03-08T17:32:39.837Z,7.92
2019-03-08T17:35:20.462Z,7.95
2019-03-08T17:37:53.047Z,10.13
2019-03-08T17:40:22.988Z,8.08
2019-03-08T17:42:58.702Z,8.40
2019-03-08T17:45:31.411Z,7.92
2019-03-08T17:48:10.426Z,9.03
2019-03-08T17:50:46.482Z,8.75
2019-03-08T17:53:22.199Z,11.40
2019-03-08T17:55:52.151Z,8.05
2019-03-08T17:58:27.854Z,7.10
2019-03-08T18:01:07.023Z,8.93
2019-03-08T18:03:36.952Z,9.80
2019-03-08T18:06:25.219Z,11.47
2019-03-08T18:09:11.319Z,15.77
2019-03-08T18:11:47.119Z,15.30
2019-03-08T18:14:17.053Z,8.85
2019-03-08T18:16:49.446Z,10.53
2019-03-08T18:19:22.647Z,12.25
2019-03-08T18:21:52.677Z,10.08
2019-03-08T18:24:23.864Z,8.10
2019-03-08T18:27:10.683Z,10.48
2019-03-08T18:29:40.599Z,6.70
2019-03-08T18:32:16.034Z,9.33
2019-03-08T18:34:45.979Z,7.20
2019-03-08T18:37:32.574Z,7.85
2019-03-08T18:40:05.256Z,6.75
2019-03-08T18:42:37.563Z,11.68
2019-03-08T18:45:10.670Z,10.72
2019-03-08T18:47:49.904Z,6.80
2019-03-08T18:50:22.534Z,8.93
2019-03-08T18:52:52.472Z,8.38
2019-03-08T18:55:27.889Z,6.58
2019-03-08T18:58:00.553Z,10.48
2019-03-08T19:00:30.491Z,6.40
2019-03-08T19:03:03.157Z,7.93
2019-03-08T19:05:38.520Z,7.22
2019-03-08T19:08:17.451Z,5.70
2019-03-08T19:11:03.732Z,8.93
2019-03-08T19:13:39.139Z,12.28
2019-03-08T19:16:21.356Z,6.60
2019-03-08T19:18:51.367Z,8.85
2019-03-08T19:21:23.991Z,6.00
2019-03-08T19:24:03.047Z,6.63
2019-03-08T19:26:44.606Z,6.92
2019-03-08T19:29:14.879Z,8.70
2019-03-08T19:31:44.909Z,8.35
2019-03-08T19:34:15.150Z,8.90
2019-03-08T19:36:51.085Z,6.50
2019-03-08T19:39:23.784Z,9.35
2019-03-08T19:41:59.236Z,8.28
2019-03-08T19:44:45.396Z,9.93
2019-03-08T19:47:24.856Z,11.18
2019-03-08T19:50:01.033Z,9.83
2019-03-08T19:52:30.964Z,9.43
2019-03-08T19:55:00.908Z,4.50
2019-03-08T19:57:31.151Z,8.75
2019-03-08T20:00:17.197Z,7.55
2019-03-08T20:02:47.126Z,11.08
2019-03-08T20:05:17.080Z,7.80
2019-03-08T20:08:02.344Z,9.15
2019-03-08T20:10:48.734Z,9.78
2019-03-08T20:13:21.746Z,5.27
2019-03-08T20:16:07.922Z,7.53
2019-03-08T20:18:55.712Z,8.75
2019-03-08T20:21:42.502Z,7.67
2019-03-08T20:24:15.675Z,7.80
2019-03-08T20:26:48.302Z,8.43
2019-03-08T20:29:20.910Z,8.55
2019-03-08T20:31:51.139Z,11.70
2019-03-08T20:34:21.368Z,6.87
2019-03-08T20:36:56.995Z,8.40
2019-03-08T20:39:26.921Z,10.80
2019-03-08T20:41:56.858Z,9.85
2019-03-08T20:44:26.968Z,8.03
2019-03-08T20:47:03.080Z,8.67
2019-03-08T20:49:31.707Z,10.40
2019-03-08T20:52:00.020Z,8.60
2019-03-08T20:54:28.587Z,8.83
2019-03-08T20:56:56.892Z,14.13
2019-03-08T20:59:25.173Z,6.87
2019-03-08T21:01:53.459Z,12.23
2019-03-08T21:04:21.771Z,9.08
2019-03-08T21:06:50.068Z,9.63
2019-03-08T21:09:18.651Z,8.30
2019-03-08T21:11:47.196Z,12.30
2019-03-08T21:14:15.787Z,12.37
2019-03-08T21:16:44.100Z,19.67
2019-03-08T21:19:12.422Z,11.05
2019-03-08T21:21:40.717Z,9.60
2019-03-08T21:24:09.434Z,10.03
2019-03-08T21:26:37.729Z,11.95
2019-03-08T21:29:06.063Z,10.43
2019-03-08T21:31:34.460Z,11.93
2019-03-08T21:34:02.769Z,14.13
2019-03-08T21:36:31.053Z,13.22
2019-03-08T21:38:59.390Z,12.40
2019-03-08T21:41:27.674Z,14.87
2019-03-08T21:43:56.354Z,10.75
2019-03-08T21:46:24.977Z,10.37
2019-03-08T21:48:53.306Z,13.62
2019-03-08T21:51:21.873Z,12.77
2019-03-08T21:53:50.494Z,10.87
2019-03-08T21:56:18.773Z,10.30
2019-03-08T21:58:47.435Z,15.00
2019-03-08T22:01:15.716Z,12.97
2019-03-08T22:03:45.675Z,11.93
2019-03-08T22:06:14.323Z,10.30
2019-03-08T22:08:44.263Z,11.08
2019-03-08T22:11:16.798Z,11.00
2019-03-08T22:13:45.392Z,15.32
2019-03-08T22:16:13.967Z,8.80
2019-03-08T22:18:42.574Z,10.35
2019-03-08T22:21:10.887Z,11.10
2019-03-08T22:23:39.241Z,9.57
2019-03-08T22:26:07.586Z,10.72
2019-03-08T22:28:35.849Z,10.93
2019-03-08T22:31:04.398Z,8.65
2019-03-08T22:33:32.760Z,9.00
2019-03-08T22:36:01.063Z,12.23
2019-03-08T22:38:29.354Z,10.80
2019-03-08T22:40:58.068Z,10.80
2019-03-08T22:43:26.668Z,13.88
2019-03-08T22:45:55.135Z,11.85
2019-03-08T22:48:23.431Z,7.22
2019-03-08T22:50:51.820Z,10.20
2019-03-08T22:53:20.156Z,13.25
2019-03-08T22:55:48.468Z,9.20
2019-03-08T22:58:17.062Z,10.20
2019-03-08T23:00:55.595Z,9.55
2019-03-08T23:03:24.789Z,10.30
2019-03-08T23:05:53.079Z,9.50
2019-03-08T23:08:21.703Z,10.10
2019-03-08T23:10:50.059Z,12.75
2019-03-08T23:13:18.446Z,10.28
2019-03-08T23:15:46.824Z,15.45
2019-03-08T23:18:15.425Z,14.47
2019-03-08T23:20:43.710Z,13.80
2019-03-08T23:23:12.589Z,10.25
2019-03-08T23:25:40.892Z,10.13
2019-03-08T23:28:17.675Z,10.78
2019-03-08T23:30:47.855Z,12.40
2019-03-08T23:33:16.156Z,10.93
2019-03-08T23:35:44.699Z,12.33
2019-03-08T23:38:12.999Z,10.58
2019-03-08T23:40:41.584Z,14.87
2019-03-08T23:43:09.881Z,7.27
2019-03-08T23:45:38.437Z,9.40
2019-03-08T23:48:07.009Z,9.98
2019-03-08T23:50:35.321Z,10.93
2019-03-08T23:53:03.615Z,5.33
2019-03-08T23:55:31.954Z,11.43
2019-03-08T23:58:00.259Z,6.78
